»·PEaware :: UAL1399 KRDD-KOAK

UAL1399 :: KRDD-KOAK

FLIGHT INFORMATION

Flight Status: Arrived
Operator:
United Airlines
More flights by this operator :: More flights under this callsign
Pilot: David C. (16084)
Aircraft: AIRBUS A320
(A320)
More flights by this aircraft type
Origin: KRDD Redding Mun
United States
Destination: KOAK Metro Oakland Intl
United States
More flights between these airports :: More routes between these airports
Route: KENDL3 RBL SPAMY WNDSR2
File this flight plan on PilotEdge
Remarks:
Altitude:
(Current/Filed)
26,000ft
Speed:
(Current/Filed)
483kts
Departed: 05-Jul-18 10:43 AM
Arrived: 05-Jul-18 11:26 AM
Distance/Time
Traveled:
168nm/0:43
Distance/Time
To Go:
Arrived

Flight Plot

Page will automatically refresh every two minutes.

Flight plan parsing failed; only flown route is shown


Map Options




Map Legend


Flown Route
Filed Route
Departure Airport
Arrival Airport
Navaid (VOR, NDB)
Fix

Horizontal Profiles

Position Reports

Time Latitude Longitude Heading Altitude Ground
Speed
05-Jul-18 10:22 40.505828 -122.298996 315 512ft 0kts
05-Jul-18 10:23 40.505828 -122.298996 315 512ft 0kts
05-Jul-18 10:24 40.505828 -122.298996 315 512ft 0kts
05-Jul-18 10:25 40.505828 -122.298996 315 512ft 0kts
05-Jul-18 10:26 40.505828 -122.298996 315 512ft 0kts
05-Jul-18 10:27 40.505828 -122.298996 315 512ft 0kts
05-Jul-18 10:28 40.505828 -122.298996 315 512ft 0kts
05-Jul-18 10:29 40.505828 -122.298996 315 512ft 0kts
05-Jul-18 10:30 40.505828 -122.298996 315 512ft 0kts
05-Jul-18 10:31 40.505828 -122.298996 315 512ft 0kts
05-Jul-18 10:32 40.505828 -122.298996 315 512ft 0kts
05-Jul-18 10:33 40.505828 -122.298996 315 512ft 0kts
05-Jul-18 10:34 40.505828 -122.298996 314 512ft 0kts
05-Jul-18 10:35 40.505828 -122.298996 315 512ft 0kts
05-Jul-18 10:36 40.505828 -122.298996 315 512ft 0kts
05-Jul-18 10:37 40.505739 -122.298664 259 512ft 2kts
05-Jul-18 10:38 40.505825 -122.298443 225 512ft 0kts
05-Jul-18 10:39 40.505585 -122.298519 170 512ft 8kts
05-Jul-18 10:40 40.502038 -122.296090 135 512ft 0kts
05-Jul-18 10:41 40.502038 -122.296090 135 512ft 0kts
05-Jul-18 10:42 40.502038 -122.296090 135 512ft 0kts
05-Jul-18 10:43 40.501902 -122.294906 3 512ft 0kts
05-Jul-18 10:44 40.528006 -122.295133 0 1429ft 176kts
05-Jul-18 10:45 40.540941 -122.239409 139 4523ft 224kts
05-Jul-18 10:46 40.493046 -122.258977 262 8055ft 213kts
05-Jul-18 10:47 40.472440 -122.333076 243 10935ft 243kts
05-Jul-18 10:48 40.413114 -122.368453 164 13847ft 272kts
05-Jul-18 10:49 40.339144 -122.336493 164 16767ft 295kts
05-Jul-18 10:50 40.259662 -122.303055 165 19592ft 307kts
05-Jul-18 10:51 40.177317 -122.268803 165 22105ft 318kts
05-Jul-18 10:52 40.096063 -122.240602 184 24214ft 324kts
05-Jul-18 10:53 40.008741 -122.272477 197 26121ft 334kts
05-Jul-18 10:54 39.912500 -122.310844 197 26199ft 390kts
05-Jul-18 10:55 39.804398 -122.353789 197 26192ft 431kts
05-Jul-18 10:56 39.688432 -122.399633 197 26194ft 439kts
05-Jul-18 10:56 39.590882 -122.438091 197 26200ft 439kts
05-Jul-18 10:57 39.474650 -122.483812 197 26205ft 438kts
05-Jul-18 10:58 39.358048 -122.529526 197 26201ft 438kts
05-Jul-18 10:59 39.242119 -122.574797 196 25990ft 437kts
05-Jul-18 11:00 39.125452 -122.580347 175 25077ft 404kts
05-Jul-18 11:01 39.021035 -122.563358 171 23887ft 366kts
05-Jul-18 11:02 38.924506 -122.539149 172 22064ft 355kts
05-Jul-18 11:03 38.830679 -122.515742 172 21099ft 352kts
05-Jul-18 11:04 38.735247 -122.491963 172 20116ft 349kts
05-Jul-18 11:05 38.641142 -122.472446 176 18649ft 340kts
05-Jul-18 11:06 38.549179 -122.458391 175 16720ft 329kts
05-Jul-18 11:07 38.459987 -122.444810 175 14782ft 320kts
05-Jul-18 11:08 38.373102 -122.431614 175 12890ft 311kts
05-Jul-18 11:09 38.288643 -122.418815 175 11096ft 302kts
05-Jul-18 11:10 38.209288 -122.406712 174 10138ft 269kts
05-Jul-18 11:11 38.137706 -122.395723 172 9050ft 254kts
05-Jul-18 11:12 38.068570 -122.385124 176 7832ft 253kts
05-Jul-18 11:13 37.999658 -122.358673 144 6871ft 274kts
05-Jul-18 11:14 37.938228 -122.299789 144 6318ft 278kts
05-Jul-18 11:15 37.880296 -122.244524 141 5874ft 271kts
05-Jul-18 11:16 37.820848 -122.187941 145 5323ft 267kts
05-Jul-18 11:17 37.767073 -122.124821 130 5043ft 255kts
05-Jul-18 11:18 37.727856 -122.061133 130 5031ft 207kts
05-Jul-18 11:19 37.693769 -122.005851 131 5006ft 198kts
05-Jul-18 11:20 37.647352 -121.987851 197 4109ft 178kts
05-Jul-18 11:21 37.615101 -122.030937 258 3306ft 176kts
05-Jul-18 11:22 37.623203 -122.089589 295 2141ft 170kts
05-Jul-18 11:23 37.649908 -122.136404 309 1600ft 156kts
05-Jul-18 11:24 37.674309 -122.173302 309 897ft 132kts
05-Jul-18 11:25 37.697706 -122.208525 308 194ft 131kts
05-Jul-18 11:26 37.712923 -122.230784 330 17ft 28kts
05-Jul-18 11:27 37.713962 -122.231334 342 17ft 0kts
05-Jul-18 11:28 37.714554 -122.230015 131 17ft 13kts
05-Jul-18 11:29 37.712010 -122.225623 75 17ft 14kts
05-Jul-18 11:30 37.711824 -122.220237 130 17ft 23kts
05-Jul-18 11:31 37.709904 -122.214620 37 17ft 13kts
05-Jul-18 11:32 37.711305 -122.213629 37 17ft 0kts

Navigation Log

Ident Type
Flight plan parsing failed, navigation log unavailable